Time;durP1;ratioP1;P1;durP2;ratioP2;P2;SDS_P1;SDS_P2;PMS_P1;PMS_P2;Temp;Humidity;BMP_temperature;BMP_pressure;BME280_temperature;BME280_humidity;BME280_pressure;Samples;Min_cycle;Max_cycle;Signal;HPM_P1;HPM_P2
2022/05/17 00:01:14;;;;;;;3.55;2.40;;;;;;;9.32;72.52;98579.41;5014663;28;20076;-78
2022/05/17 00:03:44;;;;;;;2.70;2.03;;;;;;;9.22;72.37;98562.16;5031039;28;20053;-78
2022/05/17 00:06:14;;;;;;;2.75;2.45;;;;;;;9.27;72.53;98577.72;5012661;28;20057;-79
2022/05/17 00:08:41;;;;;;;3.10;2.35;;;;;;;9.18;73.01;98565.66;5030089;28;20065;-78
2022/05/17 00:11:11;;;;;;;3.60;2.20;;;;;;;9.13;73.23;98557.91;5030965;28;20149;-80
2022/05/17 00:13:41;;;;;;;3.70;1.90;;;;;;;9.24;72.98;98576.03;5030392;28;20049;-78
2022/05/17 00:16:10;;;;;;;3.28;2.58;;;;;;;9.22;73.51;98575.16;5029728;28;20064;-77
2022/05/17 00:18:38;;;;;;;3.97;2.65;;;;;;;9.12;73.17;98552.69;5031131;28;20055;-78
2022/05/17 00:21:07;;;;;;;2.38;2.17;;;;;;;9.20;73.87;98569.13;5030046;28;20087;-78
2022/05/17 00:23:36;;;;;;;2.88;2.50;;;;;;;9.20;73.38;98556.94;5029373;28;20140;-78
2022/05/17 00:26:06;;;;;;;2.90;2.33;;;;;;;9.16;73.56;98563.09;5014082;28;20046;-78
2022/05/17 00:28:37;;;;;;;3.53;2.50;;;;;;;8.99;73.73;98550.25;5029569;28;20053;-77
2022/05/17 00:31:06;;;;;;;5.50;2.50;;;;;;;8.92;73.97;98525.16;5031481;28;20088;-79
2022/05/17 00:33:34;;;;;;;2.85;2.53;;;;;;;9.08;74.04;98546.69;5030508;28;20055;-79
2022/05/17 00:36:04;;;;;;;2.83;2.55;;;;;;;9.02;74.37;98545.00;5031255;28;20148;-79
2022/05/17 00:38:32;;;;;;;3.83;2.50;;;;;;;9.09;74.46;98550.16;5030679;28;20156;-78
2022/05/17 00:41:00;;;;;;;2.83;2.30;;;;;;;9.09;74.34;98544.94;5031822;28;20057;-79
2022/05/17 00:44:42;;;;;;;3.33;2.05;;;;;;;9.08;73.90;98545.81;5030254;28;20065;-77
2022/05/17 00:46:30;;;;;;;2.90;2.55;;;;;;;9.01;74.53;98540.69;5030415;28;20068;-79
2022/05/17 00:49:01;;;;;;;3.58;2.28;;;;;;;9.02;75.02;98541.53;5032133;28;20064;-77
2022/05/17 00:51:29;;;;;;;4.63;2.30;;;;;;;9.01;74.53;98532.88;5029147;28;20053;-78
2022/05/17 00:54:07;;;;;;;3.10;2.10;;;;;;;8.89;75.20;98504.34;4997256;28;20100;-79
2022/05/17 00:56:42;;;;;;;3.25;2.20;;;;;;;8.88;75.08;98513.03;5010686;28;20061;-78
2022/05/17 00:59:12;;;;;;;2.50;2.20;;;;;;;8.88;74.88;98500.00;5010713;28;20088;-79
2022/05/17 01:01:41;;;;;;;2.03;1.92;;;;;;;8.88;75.11;98506.97;5010560;28;20089;-76
2022/05/17 01:04:18;;;;;;;3.35;2.10;;;;;;;8.93;75.23;98516.47;4991451;28;20081;-78
2022/05/17 01:06:51;;;;;;;4.90;2.22;;;;;;;8.88;75.23;98523.44;5011421;28;20213;-77
2022/05/17 01:09:23;;;;;;;2.50;1.88;;;;;;;8.95;75.30;98521.66;5012468;28;20062;-79
2022/05/17 01:11:52;;;;;;;2.03;1.83;;;;;;;8.89;75.68;98514.78;5012814;28;20080;-78
2022/05/17 01:17:08;;;;;;;2.08;1.85;;;;;;;8.85;75.55;98527.84;4995317;28;20108;-77
2022/05/17 01:19:39;;;;;;;2.20;1.90;;;;;;;8.80;76.09;98520.09;5012579;28;20046;-79
2022/05/17 01:22:09;;;;;;;2.35;2.13;;;;;;;8.79;76.70;98524.41;5012898;28;20108;-78
2022/05/17 01:24:37;;;;;;;2.92;1.80;;;;;;;8.78;76.28;98512.28;5012932;28;20050;-77
2022/05/17 01:27:28;;;;;;;3.00;1.95;;;;;;;8.78;76.70;98512.28;5014524;28;20419;-77
2022/05/17 01:29:56;;;;;;;2.20;1.80;;;;;;;8.78;76.60;98514.03;5016552;28;20054;-78
2022/05/17 01:32:24;;;;;;;1.85;1.75;;;;;;;8.70;76.25;98514.09;5016436;28;20077;-79
2022/05/17 01:34:53;;;;;;;2.22;2.03;;;;;;;8.69;77.01;98502.00;4998735;28;20088;-78
2022/05/17 01:37:21;;;;;;;2.20;1.87;;;;;;;8.56;77.01;98488.25;5016176;28;20077;-79
2022/05/17 01:39:49;;;;;;;4.18;1.98;;;;;;;8.66;77.04;98504.59;5016131;28;20060;-78
2022/05/17 01:42:17;;;;;;;2.83;1.95;;;;;;;8.70;77.56;98505.44;5016066;28;20069;-78
2022/05/17 01:44:46;;;;;;;2.22;2.03;;;;;;;8.67;77.55;98500.25;4998725;28;20057;-78
2022/05/17 01:47:17;;;;;;;2.15;1.95;;;;;;;8.70;77.51;98497.63;4998716;28;20144;-78
2022/05/17 01:49:45;;;;;;;2.22;2.00;;;;;;;8.73;78.00;98502.78;5015830;28;20112;-78
2022/05/17 01:52:12;;;;;;;2.20;2.00;;;;;;;8.71;77.92;98501.94;5016141;28;20573;-78
2022/05/17 01:54:41;;;;;;;2.72;2.25;;;;;;;8.79;78.32;98505.34;5015844;28;20053;-78
2022/05/17 01:57:10;;;;;;;2.07;1.87;;;;;;;8.77;77.84;98505.34;5016291;28;20042;-77
2022/05/17 01:59:38;;;;;;;4.38;2.40;;;;;;;8.75;77.97;98504.50;5015862;28;20137;-77
2022/05/17 02:02:06;;;;;;;2.75;2.05;;;;;;;8.75;77.85;98493.22;5015889;28;20268;-77
2022/05/17 02:04:34;;;;;;;3.78;2.40;;;;;;;8.70;77.83;98476.81;5015854;28;20057;-78
2022/05/17 02:07:03;;;;;;;2.53;2.33;;;;;;;8.75;78.47;98496.69;5015777;28;20062;-77
2022/05/17 02:09:31;;;;;;;2.40;2.20;;;;;;;8.68;78.16;98481.16;4983553;28;20112;-78
2022/05/17 02:11:59;;;;;;;2.33;2.10;;;;;;;8.82;78.56;98506.19;4996059;28;20054;-80
2022/05/17 02:14:27;;;;;;;2.83;2.55;;;;;;;8.83;78.26;98507.03;4995925;28;20428;-78
2022/05/17 02:17:00;;;;;;;4.30;2.70;;;;;;;8.82;78.44;98500.13;4996084;28;20085;-78
2022/05/17 02:19:32;;;;;;;2.53;2.30;;;;;;;8.82;78.59;98495.75;4996354;28;20054;-78
2022/05/17 02:22:01;;;;;;;2.88;2.50;;;;;;;8.72;79.42;98482.84;4996026;28;20070;-78
2022/05/17 02:24:29;;;;;;;3.45;2.42;;;;;;;8.87;78.65;98500.06;4995914;28;20055;-78
2022/05/17 02:26:57;;;;;;;2.63;2.42;;;;;;;8.90;79.00;98497.41;4995811;28;20046;-77
2022/05/17 02:29:29;;;;;;;2.83;2.63;;;;;;;8.90;78.79;98489.59;4995598;28;20054;-78
2022/05/17 02:31:58;;;;;;;3.72;2.38;;;;;;;8.76;79.13;98458.53;4995912;28;20050;-78
2022/05/17 02:34:26;;;;;;;2.75;2.50;;;;;;;8.91;78.79;98479.16;4995867;28;20479;-79
2022/05/17 02:36:54;;;;;;;2.60;2.40;;;;;;;8.90;78.70;98480.03;4995906;28;20526;-76
2022/05/17 02:39:22;;;;;;;2.03;1.90;;;;;;;8.96;78.79;98486.91;4995028;28;20059;-78
2022/05/17 02:41:50;;;;;;;3.15;2.47;;;;;;;8.99;78.99;98494.69;4995564;28;20058;-79
2022/05/17 02:44:18;;;;;;;3.03;2.30;;;;;;;9.00;78.90;98483.41;4978419;28;20086;-79
2022/05/17 02:46:47;;;;;;;4.40;2.40;;;;;;;8.97;78.82;98479.09;4978288;28;20050;-78
2022/05/17 02:49:15;;;;;;;3.13;2.53;;;;;;;9.02;79.26;98490.31;4962034;28;20104;-77
2022/05/17 02:51:43;;;;;;;2.35;2.10;;;;;;;8.99;78.56;98489.47;4978455;28;20074;-78
2022/05/17 02:54:11;;;;;;;3.17;2.45;;;;;;;8.98;78.49;98487.75;4995721;28;20058;-78
2022/05/17 02:56:40;;;;;;;4.80;2.65;;;;;;;8.88;78.79;98467.91;4995491;28;20050;-77
2022/05/17 02:59:07;;;;;;;2.92;2.22;;;;;;;8.87;79.31;98458.38;4995213;28;20531;-77
2022/05/17 03:01:35;;;;;;;2.92;2.28;;;;;;;8.96;79.37;98495.59;4995408;28;20054;-78
2022/05/17 03:04:04;;;;;;;2.47;2.28;;;;;;;8.87;79.29;98467.06;4977843;28;20053;-78
2022/05/17 03:06:32;;;;;;;4.32;2.55;;;;;;;8.85;79.49;98463.59;4978293;28;20052;-77
2022/05/17 03:09:00;;;;;;;2.63;2.20;;;;;;;8.95;79.18;98480.00;5004709;28;20058;-79
2022/05/17 03:11:27;;;;;;;3.53;2.20;;;;;;;8.98;79.41;98487.75;5014788;28;20474;-78
2022/05/17 03:13:55;;;;;;;4.15;2.25;;;;;;;8.98;79.25;98480.81;5015053;28;20137;-78
2022/05/17 03:16:34;;;;;;;2.63;2.25;;;;;;;8.96;79.32;98482.56;5014642;28;20435;-77
2022/05/17 03:19:05;;;;;;;2.95;2.47;;;;;;;8.88;79.32;98449.69;5025390;28;20120;-77
2022/05/17 03:21:33;;;;;;;2.22;2.03;;;;;;;9.08;79.42;98475.47;5024349;28;20137;-79
2022/05/17 03:24:02;;;;;;;3.38;2.40;;;;;;;9.12;79.42;98479.75;5027567;28;20076;-79
2022/05/17 03:26:31;;;;;;;3.17;2.17;;;;;;;9.12;79.58;98483.25;5015865;28;20049;-78
2022/05/17 03:28:58;;;;;;;2.63;2.42;;;;;;;9.17;79.09;98480.59;4996133;28;20056;-78
2022/05/17 03:31:27;;;;;;;3.40;2.40;;;;;;;8.86;79.11;98430.59;4996199;28;20053;-78
2022/05/17 03:33:55;;;;;;;2.75;2.40;;;;;;;9.14;78.99;98478.00;5013830;28;20053;-78
2022/05/17 03:36:24;;;;;;;3.55;2.70;;;;;;;9.11;79.15;98480.66;4996930;28;20460;-77
2022/05/17 03:38:51;;;;;;;3.05;2.10;;;;;;;9.08;79.53;98472.88;5013832;28;20088;-77
2022/05/17 03:41:19;;;;;;;3.17;2.83;;;;;;;9.08;79.28;98484.16;5014071;28;20045;-79
2022/05/17 03:43:48;;;;;;;2.85;2.35;;;;;;;9.16;79.26;98484.94;5013731;28;20054;-79
2022/05/17 03:46:17;;;;;;;4.43;2.63;;;;;;;9.17;79.02;98485.78;5014160;28;20041;-79
2022/05/17 03:48:45;;;;;;;3.88;3.10;;;;;;;9.23;79.84;98485.72;5013505;28;20229;-78
2022/05/17 03:51:16;;;;;;;2.70;2.50;;;;;;;9.21;79.53;98475.31;5013480;28;20049;-79
2022/05/17 03:53:45;;;;;;;2.80;2.50;;;;;;;9.22;79.30;98476.16;5013839;28;20073;-78
2022/05/17 03:56:15;;;;;;;2.83;2.50;;;;;;;9.27;78.88;98479.59;4995974;28;20049;-78
2022/05/17 03:58:43;;;;;;;4.68;2.60;;;;;;;9.28;78.89;98475.22;4996063;28;20057;-76
2022/05/17 04:01:13;;;;;;;2.30;2.10;;;;;;;9.06;79.12;98446.00;5013475;28;20062;-78
2022/05/17 04:03:43;;;;;;;5.07;3.30;;;;;;;9.21;79.19;98479.66;5013482;28;20145;-77
2022/05/17 04:06:11;;;;;;;2.70;2.50;;;;;;;9.08;79.13;98445.09;5013451;28;20068;-77
2022/05/17 04:08:40;;;;;;;3.45;2.50;;;;;;;9.32;78.81;98474.31;5012934;28;20066;-77
2022/05/17 04:11:08;;;;;;;3.30;2.80;;;;;;;9.34;78.85;98477.75;5013030;28;20042;-79
2022/05/17 04:13:36;;;;;;;2.80;2.55;;;;;;;9.30;78.45;98470.88;4995764;28;20503;-78
2022/05/17 04:16:05;;;;;;;3.58;2.55;;;;;;;9.26;78.89;98466.56;5013024;28;20080;-78
2022/05/17 04:18:33;;;;;;;3.78;2.50;;;;;;;9.33;78.73;98486.44;5013223;28;20144;-78
2022/05/17 04:21:03;;;;;;;2.67;2.33;;;;;;;9.25;78.64;98476.13;5013017;28;20061;-79
2022/05/17 04:23:32;;;;;;;3.78;2.95;;;;;;;9.28;79.09;98480.44;5012935;28;20085;-80
2022/05/17 04:26:03;;;;;;;4.28;2.70;;;;;;;9.31;79.18;98483.00;5013706;28;20196;-80
2022/05/17 04:28:30;;;;;;;2.80;2.60;;;;;;;9.31;78.56;98475.19;4995261;28;20498;-79
2022/05/17 04:30:58;;;;;;;2.85;2.40;;;;;;;9.36;78.65;98483.81;5012626;28;20164;-80
2022/05/17 04:33:26;;;;;;;3.25;2.10;;;;;;;9.33;78.99;98489.91;4979404;28;20093;-77
2022/05/17 04:35:55;;;;;;;3.73;2.90;;;;;;;9.22;79.15;98471.81;5018662;28;20037;-79
2022/05/17 04:38:23;;;;;;;4.18;2.75;;;;;;;9.29;79.52;98487.38;5019353;28;20054;-78
2022/05/17 04:40:50;;;;;;;3.72;2.47;;;;;;;9.19;79.38;98448.41;5000119;28;20140;-81
2022/05/17 04:43:18;;;;;;;3.72;2.60;;;;;;;9.45;79.06;98491.50;5012962;28;20140;-78
2022/05/17 04:45:48;;;;;;;5.33;2.53;;;;;;;9.48;78.85;98482.75;5012596;28;20052;-80
2022/05/17 04:48:15;;;;;;;2.38;2.10;;;;;;;9.47;78.38;98466.28;5013274;28;20503;-78
2022/05/17 04:50:43;;;;;;;2.22;2.03;;;;;;;9.53;78.58;98484.44;5013139;28;20049;-79
2022/05/17 04:53:11;;;;;;;3.67;2.13;;;;;;;9.55;78.79;98487.88;5013396;28;20054;-79
2022/05/17 04:55:40;;;;;;;2.40;2.03;;;;;;;9.66;78.78;98481.63;5012942;28;20081;-76
2022/05/17 04:58:08;;;;;;;2.42;2.00;;;;;;;9.67;78.81;98493.78;5013258;28;20316;-79
2022/05/17 05:00:35;;;;;;;2.92;2.25;;;;;;;9.73;78.59;98484.13;5013064;28;20330;-80
2022/05/17 05:03:03;;;;;;;2.70;2.50;;;;;;;9.82;78.17;98468.34;5021113;28;20550;-78
2022/05/17 05:05:33;;;;;;;4.43;2.00;;;;;;;9.81;77.78;98482.28;5026087;28;20495;-78
2022/05/17 05:08:01;;;;;;;2.20;1.98;;;;;;;9.82;78.51;98483.97;5030949;28;20068;-77
2022/05/17 05:10:29;;;;;;;3.20;1.90;;;;;;;10.00;77.72;98469.81;5032553;28;20049;-80
2022/05/17 05:12:55;;;;;;;1.98;1.73;;;;;;;9.98;78.31;98478.50;5031706;28;20053;-78
2022/05/17 05:15:24;;;;;;;3.72;1.98;;;;;;;9.84;77.77;98450.06;5015537;28;20037;-80
2022/05/17 05:17:54;;;;;;;1.95;1.60;;;;;;;9.94;77.65;98471.66;4994802;28;20072;-81
2022/05/17 05:20:24;;;;;;;1.85;1.73;;;;;;;9.89;77.71;98478.66;5007860;28;20073;-77
2022/05/17 05:22:55;;;;;;;1.90;1.65;;;;;;;10.01;77.49;98499.34;5027047;28;20056;-77
2022/05/17 05:25:23;;;;;;;3.58;2.50;;;;;;;10.01;77.49;98484.56;5016525;28;20144;-78
2022/05/17 05:27:51;;;;;;;3.03;1.98;;;;;;;9.98;77.63;98487.22;5017229;28;20057;-77
2022/05/17 05:30:19;;;;;;;2.80;2.28;;;;;;;10.05;78.04;98487.97;5016848;28;20050;-81
2022/05/17 05:32:49;;;;;;;3.17;1.95;;;;;;;10.05;77.37;98486.22;5015855;28;20507;-79
2022/05/17 05:35:24;;;;;;;1.95;1.75;;;;;;;9.94;77.46;98467.28;5016573;28;20049;-79
2022/05/17 05:37:54;;;;;;;2.75;1.90;;;;;;;10.08;77.77;98492.28;5014553;28;20450;-79
2022/05/17 05:40:22;;;;;;;2.85;2.33;;;;;;;10.05;77.51;98490.59;5015894;28;20425;-78
2022/05/17 05:42:50;;;;;;;2.28;1.88;;;;;;;10.03;78.25;98494.97;4997246;28;20049;-83
2022/05/17 05:45:18;;;;;;;2.63;1.90;;;;;;;10.07;77.33;98483.59;5014874;28;20085;-82
2022/05/17 05:47:46;;;;;;;2.15;1.77;;;;;;;10.01;77.37;98460.22;5014862;28;20076;-80
2022/05/17 05:50:13;;;;;;;2.08;1.88;;;;;;;10.20;77.18;98485.13;5015166;28;20096;-79
2022/05/17 05:52:41;;;;;;;1.80;1.63;;;;;;;10.21;76.59;98485.97;5014825;28;20411;-83
2022/05/17 05:55:22;;;;;;;3.05;2.28;;;;;;;10.25;76.68;98500.69;4997346;28;20426;-80
2022/05/17 05:57:52;;;;;;;3.75;2.10;;;;;;;10.17;77.09;98490.38;5015281;28;20108;-81
2022/05/17 06:00:21;;;;;;;3.25;2.10;;;;;;;10.22;76.66;98496.38;4998669;28;20058;-78
2022/05/17 06:02:48;;;;;;;1.90;1.80;;;;;;;10.07;77.47;98481.00;5014972;28;20478;-79
2022/05/17 06:05:16;;;;;;;2.00;1.88;;;;;;;10.18;76.76;98486.88;5014887;28;20085;-81
2022/05/17 06:07:44;;;;;;;3.55;2.28;;;;;;;10.30;77.09;98501.50;5015117;28;20526;-81
2022/05/17 06:10:13;;;;;;;2.65;2.00;;;;;;;10.38;76.80;98512.66;5014701;28;20408;-79
2022/05/17 06:12:41;;;;;;;5.20;2.60;;;;;;;10.42;77.05;98506.50;5013387;28;20059;-81
2022/05/17 06:15:11;;;;;;;3.50;2.05;;;;;;;10.43;76.68;98520.41;5015704;28;20503;-78
2022/05/17 06:17:39;;;;;;;2.33;2.10;;;;;;;10.40;76.74;98504.81;5015675;28;20053;-80
2022/05/17 06:20:08;;;;;;;2.45;1.83;;;;;;;10.34;76.74;98508.38;5015611;28;20424;-80
2022/05/17 06:22:35;;;;;;;3.97;2.38;;;;;;;10.31;76.75;98508.44;5015550;28;20062;-80
2022/05/17 06:25:02;;;;;;;4.68;3.25;;;;;;;10.31;77.00;98512.81;5015373;28;20062;-79
2022/05/17 06:27:28;;;;;;;2.53;2.28;;;;;;;10.26;77.14;98512.88;4997920;28;20084;-79
2022/05/17 06:29:56;;;;;;;2.92;2.63;;;;;;;10.40;76.22;98503.06;5015477;28;20050;-79
2022/05/17 06:32:22;;;;;;;3.60;2.90;;;;;;;10.49;76.38;98522.06;5015125;28;20080;-81
2022/05/17 06:34:50;;;;;;;3.97;2.90;;;;;;;10.35;75.69;98484.03;5015865;28;20058;-80
2022/05/17 06:37:21;;;;;;;5.43;3.28;;;;;;;10.46;76.28;98502.09;4998676;28;20054;-80
2022/05/17 06:39:49;;;;;;;6.22;3.30;;;;;;;10.47;75.71;98506.41;4997421;28;20100;-80
2022/05/17 06:42:27;;;;;;;6.93;3.30;;;;;;;10.49;75.41;98490.75;5015015;28;20057;-82
2022/05/17 06:45:01;;;;;;;7.55;3.40;;;;;;;10.54;75.65;98508.06;5013244;28;20056;-79
2022/05/17 06:47:30;;;;;;;5.28;3.40;;;;;;;10.66;75.41;98528.69;4984914;28;20053;-80
2022/05/17 06:49:57;;;;;;;5.13;3.30;;;;;;;10.54;76.08;98488.91;4998980;28;20070;-80
2022/05/17 06:52:27;;;;;;;7.03;4.15;;;;;;;10.72;75.43;98509.47;4997870;28;20058;-81
2022/05/17 06:54:56;;;;;;;5.22;3.45;;;;;;;10.75;75.53;98514.59;4998917;28;20062;-80
2022/05/17 06:57:25;;;;;;;4.70;3.70;;;;;;;10.64;75.19;98487.84;5016063;28;20054;-79
2022/05/17 06:59:51;;;;;;;8.02;4.25;;;;;;;10.63;75.50;98531.38;5015041;28;20136;-79
2022/05/17 07:02:19;;;;;;;5.03;3.50;;;;;;;10.45;76.31;98522.13;5015361;28;20456;-80
2022/05/17 07:04:47;;;;;;;7.30;4.13;;;;;;;10.36;76.79;98526.63;5015936;28;20057;-79
2022/05/17 07:07:16;;;;;;;7.53;4.97;;;;;;;10.30;77.69;98524.13;5021647;28;20121;-80
2022/05/17 07:13:07;;;;;;;5.85;3.60;;;;;;;10.36;77.76;98532.72;5024550;28;20096;-80
2022/05/17 07:15:21;;;;;;;5.95;3.58;;;;;;;10.20;77.94;98499.91;5018147;28;20054;-80
2022/05/17 07:17:51;;;;;;;6.38;3.97;;;;;;;10.32;77.37;98531.03;5014554;28;20526;-79
2022/05/17 07:20:22;;;;;;;9.40;4.40;;;;;;;10.29;77.37;98541.53;5014535;28;20085;-80
2022/05/17 07:22:48;;;;;;;6.25;3.97;;;;;;;10.29;77.34;98538.94;5013961;28;20054;-81
2022/05/17 07:25:17;;;;;;;5.30;3.85;;;;;;;10.25;77.46;98545.91;5013757;28;20054;-80
2022/05/17 07:27:46;;;;;;;6.18;4.70;;;;;;;10.18;77.50;98533.00;5014089;28;20542;-79
2022/05/17 07:30:14;;;;;;;6.28;4.35;;;;;;;10.25;77.50;98540.69;5014218;28;20104;-78
2022/05/17 07:32:42;;;;;;;8.45;4.78;;;;;;;10.32;77.31;98530.19;5013814;28;20108;-79
2022/05/17 07:35:10;;;;;;;6.45;3.80;;;;;;;10.56;76.97;98547.16;4995851;28;20050;-80
2022/05/17 07:37:38;;;;;;;4.40;3.50;;;;;;;10.53;76.20;98527.19;4996145;28;20076;-77
2022/05/17 07:40:07;;;;;;;5.53;4.80;;;;;;;10.87;76.14;98544.88;4994688;28;20056;-78
2022/05/17 07:42:36;;;;;;;4.70;4.28;;;;;;;11.01;75.17;98540.25;5012764;28;20136;-80
2022/05/17 07:45:05;;;;;;;5.97;3.28;;;;;;;11.21;74.85;98541.63;5012561;28;20058;-78
2022/05/17 07:47:34;;;;;;;7.68;4.80;;;;;;;11.24;74.35;98555.47;5012741;28;20060;-78
2022/05/17 07:50:06;;;;;;;5.00;3.65;;;;;;;11.16;73.97;98531.22;5012365;28;20419;-79
2022/05/17 07:52:34;;;;;;;8.35;4.32;;;;;;;11.12;74.58;98547.00;5012848;28;20062;-80
2022/05/17 07:55:02;;;;;;;7.85;4.50;;;;;;;10.88;74.85;98543.13;5012605;28;20049;-80
2022/05/17 07:57:32;;;;;;;10.40;5.03;;;;;;;10.81;75.97;98564.13;5011443;28;20498;-79
2022/05/17 08:00:00;;;;;;;8.82;5.57;;;;;;;10.75;76.46;98556.41;5012524;28;20073;-81
2022/05/17 08:02:39;;;;;;;7.38;5.10;;;;;;;10.66;76.37;98530.47;5012836;28;20065;-79
2022/05/17 08:05:10;;;;;;;12.27;6.75;;;;;;;10.88;76.76;98553.56;4994940;28;20493;-79
2022/05/17 08:07:38;;;;;;;8.07;5.72;;;;;;;10.70;76.58;98532.13;5012322;28;20423;-80
2022/05/17 08:10:06;;;;;;;9.93;5.25;;;;;;;10.72;76.64;98538.19;5013957;28;20503;-78
2022/05/17 08:12:34;;;;;;;7.35;4.80;;;;;;;10.82;75.40;98554.56;5012314;28;20050;-80
2022/05/17 08:15:03;;;;;;;7.22;5.03;;;;;;;10.77;75.97;98564.22;5012356;28;20046;-78
2022/05/17 08:17:32;;;;;;;8.60;5.50;;;;;;;10.88;75.93;98554.44;5012389;28;20052;-77
2022/05/17 08:20:00;;;;;;;7.30;5.60;;;;;;;11.13;75.66;98548.75;5013052;28;20089;-83
2022/05/17 08:22:28;;;;;;;7.60;4.88;;;;;;;11.72;73.67;98549.22;5011639;28;20478;-79
2022/05/17 08:27:41;;;;;;;8.07;5.43;;;;;;;12.96;70.05;98542.72;5012239;28;20056;-81
2022/05/17 08:30:15;;;;;;;11.23;6.50;;;;;;;12.98;69.17;98509.47;5012053;28;20083;-82
2022/05/17 08:35:42;;;;;;;11.73;5.78;;;;;;;13.76;67.85;98531.72;5011977;28;20157;-80
2022/05/17 08:38:13;;;;;;;8.50;4.60;;;;;;;14.31;63.61;98533.44;4994463;28;20081;-80
2022/05/17 08:41:05;;;;;;;7.07;3.87;;;;;;;14.53;63.58;98535.38;4994851;28;20100;-78
2022/05/17 08:43:57;;;;;;;6.15;4.15;;;;;;;14.29;63.34;98532.66;5011907;28;20778;-79
2022/05/17 08:46:28;;;;;;;4.88;3.70;;;;;;;13.83;63.33;98544.63;5011865;28;20046;-80
2022/05/17 08:49:01;;;;;;;5.80;3.90;;;;;;;13.51;64.90;98538.56;5018005;28;20057;-82
2022/05/17 08:52:07;;;;;;;4.03;3.50;;;;;;;13.10;65.94;98542.38;5014718;28;20087;-79
2022/05/17 08:54:40;;;;;;;5.65;3.70;;;;;;;12.99;66.37;98545.28;4962812;28;20062;-79
2022/05/17 08:57:31;;;;;;;9.88;5.07;;;;;;;12.99;66.18;98553.16;5012051;28;20057;-79
2022/05/17 09:00:23;;;;;;;5.32;4.00;;;;;;;13.39;65.27;98545.94;4994688;28;20062;-79
2022/05/17 09:02:52;;;;;;;5.70;4.00;;;;;;;13.41;65.18;98563.34;5011330;28;20054;-78
2022/05/17 09:05:38;;;;;;;5.80;4.23;;;;;;;13.21;65.03;98563.88;5012032;28;20064;-80
2022/05/17 09:08:11;;;;;;;8.35;5.35;;;;;;;12.64;67.18;98547.06;4993562;28;20054;-77
2022/05/17 09:10:54;;;;;;;7.47;4.72;;;;;;;12.33;68.60;98554.84;4994227;28;20084;-80
2022/05/17 09:13:32;;;;;;;5.90;4.72;;;;;;;12.14;69.85;98564.88;5011866;28;20053;-81
2022/05/17 09:16:23;;;;;;;8.20;4.88;;;;;;;11.83;71.27;98564.69;5011737;28;20050;-79
2022/05/17 09:18:58;;;;;;;5.47;4.38;;;;;;;11.77;72.26;98559.63;4999577;28;20375;-79
2022/05/17 09:21:43;;;;;;;7.10;5.55;;;;;;;11.54;73.00;98571.41;4997925;28;20053;-80
2022/05/17 09:24:14;;;;;;;5.82;4.70;;;;;;;11.40;73.52;98574.34;5013227;28;20049;-81
2022/05/17 09:26:51;;;;;;;8.07;5.07;;;;;;;11.27;74.16;98554.53;5032434;28;20060;-78
2022/05/17 09:29:33;;;;;;;8.38;5.70;;;;;;;11.27;74.81;98571.09;5032154;28;20646;-81
2022/05/17 09:32:07;;;;;;;10.88;5.50;;;;;;;11.17;74.68;98551.25;5014513;28;20601;-78
2022/05/17 09:34:39;;;;;;;9.73;6.10;;;;;;;11.08;75.03;98561.91;5032436;28;20053;-78
2022/05/17 09:37:11;;;;;;;6.90;5.28;;;;;;;11.15;76.04;98563.50;5014389;28;20123;-78
2022/05/17 09:39:46;;;;;;;12.05;7.00;;;;;;;11.18;75.77;98570.41;5032735;28;20053;-77
2022/05/17 09:42:31;;;;;;;7.22;5.40;;;;;;;11.14;74.95;98564.41;5032288;28;20053;-80
2022/05/17 09:45:03;;;;;;;7.93;5.88;;;;;;;11.15;74.99;98568.72;5031737;28;20376;-78
2022/05/17 09:47:41;;;;;;;8.82;6.50;;;;;;;11.14;74.75;98568.75;5015822;28;20463;-79
2022/05/17 09:53:07;;;;;;;9.43;6.38;;;;;;;11.37;74.07;98579.59;5021032;28;20075;-79
2022/05/17 09:55:37;;;;;;;8.85;6.63;;;;;;;11.21;74.14;98542.47;5035591;28;20049;-81
2022/05/17 09:58:33;;;;;;;11.95;7.32;;;;;;;11.16;74.60;98565.22;5035248;28;20069;-78
2022/05/17 10:01:10;;;;;;;13.75;7.60;;;;;;;11.05;75.98;98580.25;5017640;28;20049;-80
2022/05/17 10:03:41;;;;;;;12.20;8.40;;;;;;;10.91;76.22;98562.22;5035263;28;20465;-79
2022/05/17 10:06:28;;;;;;;13.13;8.23;;;;;;;10.90;76.10;98536.13;5017682;28;20414;-80
2022/05/17 10:09:07;;;;;;;11.00;7.78;;;;;;;11.12;76.13;98570.53;5011138;28;20058;-80
2022/05/17 10:11:49;;;;;;;12.18;8.13;;;;;;;11.03;76.05;98569.84;5015876;28;20108;-80
2022/05/17 10:14:34;;;;;;;11.25;7.78;;;;;;;10.83;76.19;98561.50;4998032;28;20073;-80
2022/05/17 10:17:10;;;;;;;14.30;9.07;;;;;;;10.95;75.76;98573.47;5015700;28;20060;-79
2022/05/17 10:19:50;;;;;;;14.15;8.80;;;;;;;11.02;76.49;98575.09;4998375;28;20057;-80
2022/05/17 10:22:45;;;;;;;12.52;8.85;;;;;;;11.08;75.31;98598.50;4994169;28;20049;-79
2022/05/17 10:25:31;;;;;;;17.92;10.82;;;;;;;11.09;75.51;98588.91;4967016;28;20475;-80
2022/05/17 10:28:07;;;;;;;16.45;10.48;;;;;;;11.10;75.17;98578.41;4978491;28;20496;-81
2022/05/17 10:30:48;;;;;;;16.20;9.98;;;;;;;11.32;74.56;98589.31;4995732;28;20497;-78
2022/05/17 10:33:33;;;;;;;15.13;9.52;;;;;;;11.44;74.55;98594.31;4995775;28;20054;-80
2022/05/17 10:36:23;;;;;;;14.02;9.30;;;;;;;11.54;74.10;98594.09;4979861;28;20051;-81
2022/05/17 10:39:03;;;;;;;15.70;9.48;;;;;;;11.59;73.64;98577.41;4978617;28;20148;-79
2022/05/17 10:41:32;;;;;;;14.63;9.10;;;;;;;11.71;72.79;98578.06;4996082;28;20062;-79
2022/05/17 10:44:01;;;;;;;14.48;9.63;;;;;;;11.87;72.84;98582.94;4979115;28;20054;-82
2022/05/17 10:46:32;;;;;;;18.23;11.95;;;;;;;12.14;71.95;98584.97;4998251;28;20153;-80
2022/05/17 10:49:15;;;;;;;17.00;10.57;;;;;;;12.38;70.99;98579.16;4999130;28;20467;-78
2022/05/17 10:52:09;;;;;;;17.13;10.32;;;;;;;12.19;70.92;98586.56;5002974;28;20524;-77
2022/05/17 10:55:01;;;;;;;14.60;9.68;;;;;;;12.25;70.92;98583.81;4999405;28;20054;-80
2022/05/17 10:57:45;;;;;;;14.32;9.90;;;;;;;12.32;70.38;98591.53;4968310;28;20149;-80
2022/05/17 11:00:20;;;;;;;18.33;10.73;;;;;;;12.35;70.45;98581.84;5004729;28;20050;-80
2022/05/17 11:02:59;;;;;;;15.25;10.20;;;;;;;12.68;69.83;98579.28;5004533;28;20068;-77
2022/05/17 11:05:42;;;;;;;14.68;9.07;;;;;;;13.13;67.84;98578.97;5004379;28;20114;-80
2022/05/17 11:08:28;;;;;;;15.43;9.43;;;;;;;13.31;67.13;98562.75;4994008;28;20221;-79
2022/05/17 11:11:11;;;;;;;12.50;9.02;;;;;;;13.25;67.16;98583.88;5014184;28;20407;-80
2022/05/17 11:13:46;;;;;;;13.43;8.93;;;;;;;12.84;67.88;98570.13;5014086;28;20061;-79
2022/05/17 11:16:57;;;;;;;12.95;8.82;;;;;;;12.61;68.57;98591.69;5013895;28;20144;-78
2022/05/17 11:19:43;;;;;;;14.43;9.48;;;;;;;12.69;68.73;98583.59;4983854;28;20112;-77
2022/05/17 11:22:28;;;;;;;15.40;9.38;;;;;;;13.15;68.02;98586.81;5013817;28;20065;-78
2022/05/17 11:25:33;;;;;;;14.68;9.45;;;;;;;13.08;67.18;98592.22;5012698;28;20050;-78
2022/05/17 11:28:08;;;;;;;15.88;10.23;;;;;;;12.68;68.12;98601.09;5013695;28;20060;-78
2022/05/17 11:30:51;;;;;;;19.13;10.77;;;;;;;12.45;68.97;98596.44;5013890;28;20077;-76
2022/05/17 11:33:23;;;;;;;16.02;10.32;;;;;;;12.38;69.81;98607.09;5014215;28;20053;-79
2022/05/17 11:35:59;;;;;;;14.50;9.23;;;;;;;12.25;69.95;98614.38;5013852;28;20112;-80
2022/05/17 11:38:39;;;;;;;16.95;10.40;;;;;;;12.16;70.35;98610.22;5013681;28;20056;-82
2022/05/17 11:41:23;;;;;;;15.30;10.23;;;;;;;12.27;70.38;98609.97;4996086;28;20116;-81
2022/05/17 11:43:56;;;;;;;16.88;10.27;;;;;;;12.37;69.73;98613.22;5013797;28;20077;-80
2022/05/17 11:46:30;;;;;;;17.83;11.00;;;;;;;12.39;69.71;98609.69;5013444;28;20057;-80
2022/05/17 11:49:26;;;;;;;12.70;9.38;;;;;;;12.24;69.60;98596.97;5013410;28;20431;-77
2022/05/17 11:51:58;;;;;;;13.43;9.88;;;;;;;12.35;69.84;98623.75;5007567;28;20049;-82
2022/05/17 11:54:45;;;;;;;15.13;8.93;;;;;;;12.60;68.99;98615.28;5018163;28;20104;-79
2022/05/17 11:57:19;;;;;;;13.68;9.05;;;;;;;12.91;68.03;98612.75;5024158;28;20068;-81
2022/05/17 11:59:54;;;;;;;12.70;9.13;;;;;;;13.18;66.88;98619.03;5013509;28;20056;-79
2022/05/17 12:02:43;;;;;;;12.70;8.55;;;;;;;13.19;65.70;98619.91;5019827;28;20046;-80
2022/05/17 12:05:35;;;;;;;12.40;8.20;;;;;;;13.33;65.27;98607.28;5015579;28;20064;-77
2022/05/17 12:08:36;;;;;;;11.43;8.07;;;;;;;13.70;64.18;98607.13;5033157;28;20119;-80
2022/05/17 12:11:10;;;;;;;11.48;8.10;;;;;;;13.92;63.59;98606.47;4995872;28;20054;-81
2022/05/17 12:14:13;;;;;;;11.02;7.63;;;;;;;14.05;64.02;98599.09;5013002;28;20081;-78